Flugplatz Bartholomä-Amalienhof

Für EDPU sind keine METAR/TAF Berichte vorhanden.
Es werden die Flugwettermeldungen vom Flugplatz Adolf Würth in 44 km Entfernung angezeigt.

Bericht für EDTY

vom 16.01. um 10:20 UTC

Wind 14 kt aus 260°

Sichtweite 4000 m

feuchter Dunst

bedeckt in 500 ft

Temperatur -1.0°C

Taupunkt -1.0°C

Luftfeuchtigkeit 100%

Luftdruck 1025 hPa

EDTY 161020Z 26014KT 4000 BR OVC005 M01/M01 Q1025

Prognose für EDTY

vom 16.01. um 08:00 UTC

Zwischen 09:00 UTC und 18:00 UTC

Wind 7 kt aus 240°

Sichtweite 4000 m

feuchter Dunst

aufgebrochene Bewölkung in 400 ft


Zwischen 09:00 und 11:00 UTC übergehend zu

Wind 12 kt aus 260°

Sichtweite 9000 m

feuchter Dunst

aufgebrochene Bewölkung in 600 ft

TAF EDTY 160800Z 1609/1618 24007KT 4000 BR BKN004 BECMG 1609/1611 26012KT 9000 BKN006
Impressum